^^
B2 Weather Station Historical Data
Daily Summary for April 5, 2019 Units:  Both    English   Metric
Daily Weekly Monthly Yearly Custom
  High: Low: Average:
Temperature: 55.4 °F /  13 °C 39.2 °F /  4 °C 47.3 °F /  8.5 °C
Dew Point: 52.0 °F /  11.1 °C 37.3 °F /  2.9 °C 44.9 °F /  7.2 °C
Humidity: 94% 86% 91%
Wind Speed: 13.8mph /  22.2km/h - 3.4mph /  5.5km/h
Wind Gust: 9.1mph /  14.6km/h - -
Wind- - SSE
Pressure: 30.16 in /  1021.2 hPa 30.06 in /  1017.8 hPa -
Precipitation: 0.00 in /  0 mm    
Historical Graphs
 
 
Tabular Data for April 5, 2019
Time Temperature Dew Point Pressure Wind Wind Speed Wind Gust Humidity Rainfall Rate (Hourly) solar
00:04 41.0 °F /  5 °C 39.4 °F /  4.1 °C 30.16in /  1021.2hPa East 11.5mph /  18.5km/h 8.7mph /  14km/h 94% 0.02in /  0.51mm 0.00 W/m2
00:09 40.9 °F /  4.9 °C 39.3 °F /  4.1 °C 30.15in /  1020.9hPa ESE 13.8mph /  22.2km/h 8.2mph /  13.2km/h 94% 0.02in /  0.51mm 0.00 W/m2
00:14 40.9 °F /  4.9 °C 39.0 °F /  3.9 °C 30.15in /  1020.9hPa East 10.4mph /  16.7km/h 9.1mph /  14.6km/h 93% 0.02in /  0.51mm 0.00 W/m2
00:19 40.8 °F /  4.9 °C 39.2 °F /  4 °C 30.15in /  1020.9hPa East 10.0mph /  16.1km/h 6.7mph /  10.8km/h 94% 0.01in /  0.25mm 0.00 W/m2
00:24 40.6 °F /  4.8 °C 38.7 °F /  3.7 °C 30.15in /  1020.9hPa East 12.7mph /  20.4km/h 7.0mph /  11.3km/h 93% 0.01in /  0.25mm 0.00 W/m2
00:29 40.5 °F /  4.7 °C 38.6 °F /  3.7 °C 30.15in /  1020.9hPa East 12.7mph /  20.4km/h 5.5mph /  8.9km/h 93% 0.01in /  0.25mm 0.00 W/m2
00:34 40.4 °F /  4.7 °C 38.8 °F /  3.8 °C 30.15in /  1020.9hPa East 10.4mph /  16.7km/h 6.4mph /  10.3km/h 94% 0.01in /  0.25mm 0.00 W/m2
00:39 40.3 °F /  4.6 °C 38.7 °F /  3.7 °C 30.15in /  1020.9hPa ESE 9.2mph /  14.8km/h 6.9mph /  11.1km/h 94% 0.01in /  0.25mm 0.00 W/m2
00:44 40.2 °F /  4.6 °C 38.6 °F /  3.7 °C 30.15in /  1020.9hPa ESE 10.4mph /  16.7km/h 7.2mph /  11.6km/h 94% 0.01in /  0.25mm 0.00 W/m2
00:49 40.2 °F /  4.6 °C 38.3 °F /  3.5 °C 30.15in /  1020.9hPa ESE 8.1mph /  13km/h 7.4mph /  11.9km/h 93% 0.00in /  0mm 0.00 W/m2
00:54 40.1 °F /  4.5 °C 38.2 °F /  3.4 °C 30.15in /  1020.9hPa ESE 9.2mph /  14.8km/h 7.0mph /  11.3km/h 93% 0.00in /  0mm 0.00 W/m2
00:59 40.0 °F /  4.4 °C 38.1 °F /  3.4 °C 30.15in /  1020.9hPa ESE 10.0mph /  16.1km/h 7.6mph /  12.2km/h 93% 0.00in /  0mm 0.00 W/m2
01:04 40.0 °F /  4.4 °C 38.1 °F /  3.4 °C 30.15in /  1020.9hPa ESE 11.5mph /  18.5km/h 8.2mph /  13.2km/h 93% 0.00in /  0mm 0.00 W/m2
01:09 39.9 °F /  4.4 °C 38.0 °F /  3.3 °C 30.15in /  1020.9hPa East 9.2mph /  14.8km/h 7.1mph /  11.4km/h 93% 0.00in /  0mm 0.00 W/m2
01:14 39.8 °F /  4.3 °C 37.9 °F /  3.3 °C 30.15in /  1020.9hPa ESE 9.2mph /  14.8km/h 8.3mph /  13.4km/h 93% 0.00in /  0mm 0.00 W/m2
01:19 39.8 °F /  4.3 °C 37.9 °F /  3.3 °C 30.15in /  1020.9hPa East 11.5mph /  18.5km/h 7.0mph /  11.3km/h 93% 0.00in /  0mm 0.00 W/m2
01:24 39.7 °F /  4.3 °C 37.8 °F /  3.2 °C 30.14in /  1020.5hPa ESE 10.4mph /  16.7km/h 6.6mph /  10.6km/h 93% 0.00in /  0mm 0.00 W/m2
01:29 39.6 °F /  4.2 °C 37.7 °F /  3.2 °C 30.14in /  1020.5hPa ESE 9.2mph /  14.8km/h 6.1mph /  9.8km/h 93% 0.00in /  0mm 0.00 W/m2
01:34 39.5 °F /  4.2 °C 37.6 °F /  3.1 °C 30.14in /  1020.5hPa ESE 10.4mph /  16.7km/h 8.4mph /  13.5km/h 93% 0.00in /  0mm 0.00 W/m2
01:40 39.5 °F /  4.2 °C 37.6 °F /  3.1 °C 30.14in /  1020.5hPa ESE 10.4mph /  16.7km/h 7.3mph /  11.7km/h 93% 0.00in /  0mm 0.00 W/m2
01:44 39.4 °F /  4.1 °C 37.5 °F /  3.1 °C 30.13in /  1020.2hPa ESE 9.2mph /  14.8km/h 7.9mph /  12.7km/h 93% 0.00in /  0mm 0.00 W/m2
01:49 39.4 °F /  4.1 °C 37.5 °F /  3.1 °C 30.13in /  1020.2hPa ESE 8.1mph /  13km/h 6.9mph /  11.1km/h 93% 0.00in /  0mm 0.00 W/m2
01:54 39.3 °F /  4.1 °C 37.4 °F /  3 °C 30.12in /  1019.9hPa ESE 11.5mph /  18.5km/h 6.6mph /  10.6km/h 93% 0.00in /  0mm 0.00 W/m2
01:59 39.3 °F /  4.1 °C 37.4 °F /  3 °C 30.12in /  1019.9hPa ESE 10.4mph /  16.7km/h 7.5mph /  12.1km/h 93% 0.00in /  0mm 0.00 W/m2
02:04 39.3 °F /  4.1 °C 37.4 °F /  3 °C 30.12in /  1019.9hPa ESE 12.7mph /  20.4km/h 8.3mph /  13.4km/h 93% 0.00in /  0mm 0.00 W/m2
02:09 39.3 °F /  4.1 °C 37.4 °F /  3 °C 30.12in /  1019.9hPa East 10.4mph /  16.7km/h 6.5mph /  10.5km/h 93% 0.00in /  0mm 0.00 W/m2
02:14 39.2 °F /  4 °C 37.3 °F /  2.9 °C 30.11in /  1019.5hPa ESE 11.5mph /  18.5km/h 6.8mph /  10.9km/h 93% 0.00in /  0mm 0.00 W/m2
02:19 39.2 °F /  4 °C 37.3 °F /  2.9 °C 30.11in /  1019.5hPa ESE 8.1mph /  13km/h 7.2mph /  11.6km/h 93% 0.00in /  0mm 0.00 W/m2
02:24 39.2 °F /  4 °C 37.3 °F /  2.9 °C 30.11in /  1019.5hPa ESE 10.4mph /  16.7km/h 8.8mph /  14.2km/h 93% 0.00in /  0mm 0.00 W/m2
02:29 39.2 °F /  4 °C 37.3 °F /  2.9 °C 30.11in /  1019.5hPa ESE 10.4mph /  16.7km/h 6.1mph /  9.8km/h 93% 0.00in /  0mm 0.00 W/m2
02:34 39.2 °F /  4 °C 37.3 °F /  2.9 °C 30.11in /  1019.5hPa ESE 7.0mph /  11.3km/h 7.2mph /  11.6km/h 93% 0.00in /  0mm 0.00 W/m2
02:39 39.2 °F /  4 °C 37.3 °F /  2.9 °C 30.11in /  1019.5hPa ESE 8.1mph /  13km/h 4.3mph /  6.9km/h 93% 0.00in /  0mm 0.00 W/m2
02:44 39.2 °F /  4 °C 37.3 °F /  2.9 °C 30.10in /  1019.2hPa ESE 9.2mph /  14.8km/h 6.1mph /  9.8km/h 93% 0.00in /  0mm 0.00 W/m2
02:49 39.2 °F /  4 °C 37.3 °F /  2.9 °C 30.10in /  1019.2hPa East 8.1mph /  13km/h 8.1mph /  13km/h 93% 0.00in /  0mm 0.00 W/m2
02:54 39.2 °F /  4 °C 37.3 °F /  2.9 °C 30.10in /  1019.2hPa ESE 9.2mph /  14.8km/h 6.2mph /  10km/h 93% 0.00in /  0mm 0.00 W/m2
02:59 39.2 °F /  4 °C 37.3 °F /  2.9 °C 30.10in /  1019.2hPa ESE 8.1mph /  13km/h 5.4mph /  8.7km/h 93% 0.00in /  0mm 0.00 W/m2
03:04 39.2 °F /  4 °C 37.3 °F /  2.9 °C 30.10in /  1019.2hPa ESE 8.1mph /  13km/h 5.9mph /  9.5km/h 93% 0.00in /  0mm 0.00 W/m2
03:09 39.2 °F /  4 °C 37.3 °F /  2.9 °C 30.10in /  1019.2hPa East 8.1mph /  13km/h 5.3mph /  8.5km/h 93% 0.00in /  0mm 0.00 W/m2
03:14 39.2 °F /  4 °C 37.3 °F /  2.9 °C 30.10in /  1019.2hPa ESE 9.2mph /  14.8km/h 7.6mph /  12.2km/h 93% 0.00in /  0mm 0.00 W/m2
03:19 39.3 °F /  4.1 °C 37.4 °F /  3 °C 30.10in /  1019.2hPa ESE 11.5mph /  18.5km/h 7.5mph /  12.1km/h 93% 0.00in /  0mm 0.00 W/m2
03:24 39.3 °F /  4.1 °C 37.4 °F /  3 °C 30.10in /  1019.2hPa ESE 9.2mph /  14.8km/h 6.3mph /  10.1km/h 93% 0.00in /  0mm 0.00 W/m2
03:29 39.3 °F /  4.1 °C 37.4 °F /  3 °C 30.09in /  1018.8hPa ESE 9.0mph /  14.5km/h 6.4mph /  10.3km/h 93% 0.00in /  0mm 0.00 W/m2
03:34 39.3 °F /  4.1 °C 37.4 °F /  3 °C 30.09in /  1018.8hPa ESE 10.4mph /  16.7km/h 5.4mph /  8.7km/h 93% 0.00in /  0mm 0.00 W/m2
03:39 39.3 °F /  4.1 °C 37.4 °F /  3 °C 30.09in /  1018.8hPa SE 3.5mph /  5.6km/h 4.0mph /  6.4km/h 93% 0.00in /  0mm 0.00 W/m2
03:44 39.3 °F /  4.1 °C 37.4 °F /  3 °C 30.09in /  1018.8hPa ESE 9.2mph /  14.8km/h 4.5mph /  7.2km/h 93% 0.00in /  0mm 0.00 W/m2
03:49 39.4 °F /  4.1 °C 37.5 °F /  3.1 °C 30.09in /  1018.8hPa SE 6.9mph /  11.1km/h 4.5mph /  7.2km/h 93% 0.00in /  0mm 0.00 W/m2
03:54 39.4 °F /  4.1 °C 37.5 °F /  3.1 °C 30.09in /  1018.8hPa ESE 7.0mph /  11.3km/h 5.4mph /  8.7km/h 93% 0.00in /  0mm 0.00 W/m2
03:59 39.4 °F /  4.1 °C 37.5 °F /  3.1 °C 30.09in /  1018.8hPa ESE 5.0mph /  8km/h 5.7mph /  9.2km/h 93% 0.00in /  0mm 0.00 W/m2
04:04 39.4 °F /  4.1 °C 37.5 °F /  3.1 °C 30.09in /  1018.8hPa ESE 5.8mph /  9.3km/h 4.6mph /  7.4km/h 93% 0.00in /  0mm 0.00 W/m2
04:09 39.5 °F /  4.2 °C 37.6 °F /  3.1 °C 30.08in /  1018.5hPa East 6.9mph /  11.1km/h 5.7mph /  9.2km/h 93% 0.00in /  0mm 0.00 W/m2
04:14 39.5 °F /  4.2 °C 37.6 °F /  3.1 °C 30.08in /  1018.5hPa ESE 6.9mph /  11.1km/h 3.5mph /  5.6km/h 93% 0.00in /  0mm 0.00 W/m2
04:19 39.5 °F /  4.2 °C 37.6 °F /  3.1 °C 30.09in /  1018.8hPa ESE 3.5mph /  5.6km/h 3.1mph /  5km/h 93% 0.00in /  0mm 0.00 W/m2
04:24 39.6 °F /  4.2 °C 38.0 °F /  3.3 °C 30.08in /  1018.5hPa ESE 8.1mph /  13km/h 4.5mph /  7.2km/h 94% 0.00in /  0mm 0.00 W/m2
04:29 39.6 °F /  4.2 °C 38.0 °F /  3.3 °C 30.09in /  1018.8hPa ESE 4.6mph /  7.4km/h 3.6mph /  5.8km/h 94% 0.00in /  0mm 0.00 W/m2
04:34 39.6 °F /  4.2 °C 38.0 °F /  3.3 °C 30.09in /  1018.8hPa ESE 5.8mph /  9.3km/h 4.5mph /  7.2km/h 94% 0.00in /  0mm 0.00 W/m2
04:39 39.6 °F /  4.2 °C 38.0 °F /  3.3 °C 30.09in /  1018.8hPa ESE 7.0mph /  11.3km/h 5.3mph /  8.5km/h 94% 0.00in /  0mm 0.00 W/m2
04:44 39.6 °F /  4.2 °C 38.0 °F /  3.3 °C 30.09in /  1018.8hPa ESE 4.6mph /  7.4km/h 3.4mph /  5.5km/h 94% 0.00in /  0mm 0.00 W/m2
04:49 39.7 °F /  4.3 °C 38.1 °F /  3.4 °C 30.08in /  1018.5hPa ESE 6.9mph /  11.1km/h 5.1mph /  8.2km/h 94% 0.00in /  0mm 0.00 W/m2
04:54 39.6 °F /  4.2 °C 38.0 °F /  3.3 °C 30.08in /  1018.5hPa SE 7.0mph /  11.3km/h 4.3mph /  6.9km/h 94% 0.00in /  0mm 0.00 W/m2
04:59 39.7 °F /  4.3 °C 37.8 °F /  3.2 °C 30.08in /  1018.5hPa ESE 4.6mph /  7.4km/h 3.7mph /  6km/h 93% 0.00in /  0mm 0.00 W/m2
05:04 39.7 °F /  4.3 °C 38.1 °F /  3.4 °C 30.08in /  1018.5hPa SE 5.0mph /  8km/h 3.7mph /  6km/h 94% 0.00in /  0mm 0.00 W/m2
05:10 39.7 °F /  4.3 °C 37.8 °F /  3.2 °C 30.08in /  1018.5hPa ESE 4.6mph /  7.4km/h 4.0mph /  6.4km/h 93% 0.00in /  0mm 0.00 W/m2
05:14 39.7 °F /  4.3 °C 38.1 °F /  3.4 °C 30.08in /  1018.5hPa ESE 4.0mph /  6.4km/h 2.9mph /  4.7km/h 94% 0.00in /  0mm 0.00 W/m2
05:19 39.7 °F /  4.3 °C 38.1 °F /  3.4 °C 30.08in /  1018.5hPa ESE 3.5mph /  5.6km/h 2.3mph /  3.7km/h 94% 0.00in /  0mm 0.00 W/m2
05:24 39.7 °F /  4.3 °C 38.1 °F /  3.4 °C 30.09in /  1018.8hPa SE 4.0mph /  6.4km/h 3.4mph /  5.5km/h 94% 0.00in /  0mm 0.00 W/m2
05:29 39.8 °F /  4.3 °C 38.2 °F /  3.4 °C 30.08in /  1018.5hPa SE 4.6mph /  7.4km/h 3.3mph /  5.3km/h 94% 0.00in /  0mm 0.00 W/m2
05:34 39.8 °F /  4.3 °C 38.2 °F /  3.4 °C 30.08in /  1018.5hPa SE 3.5mph /  5.6km/h 3.0mph /  4.8km/h 94% 0.00in /  0mm 0.00 W/m2
05:39 39.8 °F /  4.3 °C 38.2 °F /  3.4 °C 30.09in /  1018.8hPa SE 4.6mph /  7.4km/h 3.7mph /  6km/h 94% 0.00in /  0mm 0.00 W/m2
05:44 39.8 °F /  4.3 °C 38.2 °F /  3.4 °C 30.08in /  1018.5hPa ESE 5.0mph /  8km/h 4.2mph /  6.8km/h 94% 0.00in /  0mm 0.00 W/m2
05:50 39.8 °F /  4.3 °C 38.2 °F /  3.4 °C 30.09in /  1018.8hPa ESE 4.6mph /  7.4km/h 3.9mph /  6.3km/h 94% 0.00in /  0mm 0.00 W/m2
05:54 39.9 °F /  4.4 °C 38.3 °F /  3.5 °C 30.08in /  1018.5hPa SE 3.5mph /  5.6km/h 2.2mph /  3.5km/h 94% 0.00in /  0mm 0.00 W/m2
05:59 40.0 °F /  4.4 °C 38.4 °F /  3.6 °C 30.08in /  1018.5hPa SE 3.5mph /  5.6km/h 2.7mph /  4.3km/h 94% 0.00in /  0mm 0.00 W/m2
06:04 40.0 °F /  4.4 °C 38.4 °F /  3.6 °C 30.08in /  1018.5hPa SE 4.6mph /  7.4km/h 2.5mph /  4km/h 94% 0.00in /  0mm 0.00 W/m2
06:09 40.0 °F /  4.4 °C 38.4 °F /  3.6 °C 30.08in /  1018.5hPa SE 3.5mph /  5.6km/h 1.7mph /  2.7km/h 94% 0.00in /  0mm 0.00 W/m2
06:14 40.1 °F /  4.5 °C 38.5 °F /  3.6 °C 30.08in /  1018.5hPa SE 3.5mph /  5.6km/h 2.7mph /  4.3km/h 94% 0.00in /  0mm 0.00 W/m2
06:19 40.1 °F /  4.5 °C 38.5 °F /  3.6 °C 30.08in /  1018.5hPa ESE 3.5mph /  5.6km/h 1.6mph /  2.6km/h 94% 0.00in /  0mm 0.00 W/m2
06:24 40.2 °F /  4.6 °C 38.6 °F /  3.7 °C 30.08in /  1018.5hPa ESE 2.3mph /  3.7km/h 1.7mph /  2.7km/h 94% 0.00in /  0mm 0.00 W/m2
06:29 40.2 °F /  4.6 °C 38.6 °F /  3.7 °C 30.08in /  1018.5hPa ESE 2.3mph /  3.7km/h 1.5mph /  2.4km/h 94% 0.00in /  0mm 0.00 W/m2
06:34 40.3 °F /  4.6 °C 38.7 °F /  3.7 °C 30.08in /  1018.5hPa ESE 2.3mph /  3.7km/h 0.4mph /  0.6km/h 94% 0.00in /  0mm 0.00 W/m2
06:39 40.3 °F /  4.6 °C 38.7 °F /  3.7 °C 30.08in /  1018.5hPa ESE 3.5mph /  5.6km/h 1.0mph /  1.6km/h 94% 0.00in /  0mm 0.00 W/m2
06:44 40.4 °F /  4.7 °C 38.8 °F /  3.8 °C 30.08in /  1018.5hPa ESE 3.5mph /  5.6km/h 1.7mph /  2.7km/h 94% 0.00in /  0mm 0.00 W/m2
06:49 40.4 °F /  4.7 °C 38.8 °F /  3.8 °C 30.08in /  1018.5hPa ESE 3.5mph /  5.6km/h 1.4mph /  2.3km/h 94% 0.00in /  0mm 0.00 W/m2
06:54 40.5 °F /  4.7 °C 38.9 °F /  3.8 °C 30.09in /  1018.8hPa Calm     94% 0.00in /  0mm 0.00 W/m2
06:59 40.5 °F /  4.7 °C 38.9 °F /  3.8 °C 30.09in /  1018.8hPa ESE 3.5mph /  5.6km/h 1.4mph /  2.3km/h 94% 0.00in /  0mm 5.00 W/m2
07:04 40.6 °F /  4.8 °C 39.0 °F /  3.9 °C 30.09in /  1018.8hPa ESE 3.5mph /  5.6km/h 0.4mph /  0.6km/h 94% 0.00in /  0mm 9.00 W/m2
07:09 40.6 °F /  4.8 °C 39.0 °F /  3.9 °C 30.09in /  1018.8hPa ESE 2.3mph /  3.7km/h 0.2mph /  0.3km/h 94% 0.00in /  0mm 12.00 W/m2
07:14 40.7 °F /  4.8 °C 39.1 °F /  3.9 °C 30.09in /  1018.8hPa ESE 1.2mph /  1.9km/h   94% 0.00in /  0mm 16.00 W/m2
07:19 40.8 °F /  4.9 °C 39.2 °F /  4 °C 30.09in /  1018.8hPa Calm     94% 0.00in /  0mm 18.00 W/m2
07:24 40.9 °F /  4.9 °C 39.3 °F /  4.1 °C 30.09in /  1018.8hPa Calm     94% 0.00in /  0mm 21.00 W/m2
07:29 41.0 °F /  5 °C 39.4 °F /  4.1 °C 30.09in /  1018.8hPa Calm     94% 0.00in /  0mm 33.00 W/m2
07:34 41.1 °F /  5.1 °C 39.5 °F /  4.2 °C 30.09in /  1018.8hPa ESE 1.0mph /  1.6km/h 0.3mph /  0.5km/h 94% 0.00in /  0mm 42.00 W/m2
07:39 41.2 °F /  5.1 °C 39.6 °F /  4.2 °C 30.09in /  1018.8hPa ESE 1.2mph /  1.9km/h 0.9mph /  1.4km/h 94% 0.00in /  0mm 42.00 W/m2
07:44 41.3 °F /  5.2 °C 39.7 °F /  4.3 °C 30.09in /  1018.8hPa ESE 1.2mph /  1.9km/h 0.5mph /  0.8km/h 94% 0.00in /  0mm 42.00 W/m2
07:49 41.4 °F /  5.2 °C 39.8 °F /  4.3 °C 30.09in /  1018.8hPa ESE 2.3mph /  3.7km/h 1.2mph /  1.9km/h 94% 0.00in /  0mm 40.00 W/m2
07:54 41.6 °F /  5.3 °C 40.0 °F /  4.4 °C 30.09in /  1018.8hPa East 2.3mph /  3.7km/h 2.0mph /  3.2km/h 94% 0.00in /  0mm 40.00 W/m2
07:59 41.8 °F /  5.4 °C 40.2 °F /  4.6 °C 30.09in /  1018.8hPa East 2.0mph /  3.2km/h 1.1mph /  1.8km/h 94% 0.00in /  0mm 42.00 W/m2
08:04 41.8 °F /  5.4 °C 40.2 °F /  4.6 °C 30.09in /  1018.8hPa Calm     94% 0.00in /  0mm 47.00 W/m2
08:09 42.0 °F /  5.6 °C 40.4 °F /  4.7 °C 30.09in /  1018.8hPa East 2.3mph /  3.7km/h 1.5mph /  2.4km/h 94% 0.00in /  0mm 58.00 W/m2
08:14 42.2 °F /  5.7 °C 40.6 °F /  4.8 °C 30.09in /  1018.8hPa Calm     94% 0.00in /  0mm 54.00 W/m2
08:19 42.3 °F /  5.7 °C 40.7 °F /  4.8 °C 30.09in /  1018.8hPa East 2.3mph /  3.7km/h 1.4mph /  2.3km/h 94% 0.00in /  0mm 58.00 W/m2
08:24 42.4 °F /  5.8 °C 40.8 °F /  4.9 °C 30.09in /  1018.8hPa East 2.3mph /  3.7km/h 0.9mph /  1.4km/h 94% 0.00in /  0mm 70.00 W/m2
08:29 42.6 °F /  5.9 °C 41.0 °F /  5 °C 30.09in /  1018.8hPa East 1.2mph /  1.9km/h 0.5mph /  0.8km/h 94% 0.00in /  0mm 67.00 W/m2
08:34 42.7 °F /  5.9 °C 41.1 °F /  5.1 °C 30.09in /  1018.8hPa East 1.2mph /  1.9km/h   94% 0.00in /  0mm 77.00 W/m2
08:39 42.9 °F /  6.1 °C 41.3 °F /  5.2 °C 30.09in /  1018.8hPa Calm     94% 0.00in /  0mm 88.00 W/m2
08:44 43.0 °F /  6.1 °C 41.4 °F /  5.2 °C 30.08in /  1018.5hPa East 2.3mph /  3.7km/h 1.2mph /  1.9km/h 94% 0.00in /  0mm 109.00 W/m2
08:49 43.3 °F /  6.3 °C 41.7 °F /  5.4 °C 30.09in /  1018.8hPa East 2.3mph /  3.7km/h 0.2mph /  0.3km/h 94% 0.00in /  0mm 121.00 W/m2
08:54 43.5 °F /  6.4 °C 41.9 °F /  5.5 °C 30.09in /  1018.8hPa East 1.2mph /  1.9km/h   94% 0.00in /  0mm 123.00 W/m2
08:59 43.7 °F /  6.5 °C 42.1 °F /  5.6 °C 30.09in /  1018.8hPa Calm     94% 0.00in /  0mm 111.00 W/m2
09:04 43.9 °F /  6.6 °C 42.3 °F /  5.7 °C 30.09in /  1018.8hPa East 2.3mph /  3.7km/h 0.6mph /  1km/h 94% 0.00in /  0mm 107.00 W/m2
09:09 44.0 °F /  6.7 °C 42.4 °F /  5.8 °C 30.09in /  1018.8hPa East 2.3mph /  3.7km/h 0.6mph /  1km/h 94% 0.00in /  0mm 114.00 W/m2
09:14 44.2 °F /  6.8 °C 42.3 °F /  5.7 °C 30.09in /  1018.8hPa Calm     93% 0.00in /  0mm 105.00 W/m2
09:19 44.3 °F /  6.8 °C 42.4 °F /  5.8 °C 30.09in /  1018.8hPa East 2.0mph /  3.2km/h 0.9mph /  1.4km/h 93% 0.00in /  0mm 102.00 W/m2
09:24 44.5 °F /  6.9 °C 42.6 °F /  5.9 °C 30.09in /  1018.8hPa East 2.0mph /  3.2km/h 0.5mph /  0.8km/h 93% 0.00in /  0mm 100.00 W/m2
09:29 44.7 °F /  7.1 °C 42.8 °F /  6 °C 30.09in /  1018.8hPa East 1.2mph /  1.9km/h   93% 0.00in /  0mm 107.00 W/m2
09:34 44.7 °F /  7.1 °C 42.8 °F /  6 °C 30.09in /  1018.8hPa Calm     93% 0.00in /  0mm 113.00 W/m2
09:40 44.8 °F /  7.1 °C 42.9 °F /  6.1 °C 30.09in /  1018.8hPa East 3.5mph /  5.6km/h 1.7mph /  2.7km/h 93% 0.00in /  0mm 109.00 W/m2
09:44 45.0 °F /  7.2 °C 43.1 °F /  6.2 °C 30.09in /  1018.8hPa East 2.3mph /  3.7km/h 0.2mph /  0.3km/h 93% 0.00in /  0mm 107.00 W/m2
09:49 45.1 °F /  7.3 °C 43.2 °F /  6.2 °C 30.09in /  1018.8hPa East 2.3mph /  3.7km/h 0.3mph /  0.5km/h 93% 0.00in /  0mm 113.00 W/m2
09:54 45.2 °F /  7.3 °C 43.3 °F /  6.3 °C 30.09in /  1018.8hPa Calm     93% 0.00in /  0mm 105.00 W/m2
09:59 45.4 °F /  7.4 °C 43.5 °F /  6.4 °C 30.09in /  1018.8hPa Calm     93% 0.00in /  0mm 135.00 W/m2
10:04 45.4 °F /  7.4 °C 43.5 °F /  6.4 °C 30.09in /  1018.8hPa Calm     93% 0.00in /  0mm 153.00 W/m2
10:09 45.5 °F /  7.5 °C 43.6 °F /  6.4 °C 30.09in /  1018.8hPa Calm     93% 0.00in /  0mm 163.00 W/m2
10:14 45.7 °F /  7.6 °C 43.8 °F /  6.6 °C 30.09in /  1018.8hPa Calm     93% 0.00in /  0mm 142.00 W/m2
10:19 45.9 °F /  7.7 °C 44.0 °F /  6.7 °C 30.09in /  1018.8hPa Calm     93% 0.00in /  0mm 174.00 W/m2
10:24 46.0 °F /  7.8 °C 44.1 °F /  6.7 °C 30.09in /  1018.8hPa Calm     93% 0.00in /  0mm 197.00 W/m2
10:29 46.2 °F /  7.9 °C 44.3 °F /  6.8 °C 30.09in /  1018.8hPa Calm     93% 0.00in /  0mm 221.00 W/m2
10:34 46.5 °F /  8.1 °C 44.6 °F /  7 °C 30.09in /  1018.8hPa Calm     93% 0.00in /  0mm 258.00 W/m2
10:39 46.8 °F /  8.2 °C 44.9 °F /  7.2 °C 30.10in /  1019.2hPa Calm     93% 0.00in /  0mm 264.00 W/m2
10:45 47.1 °F /  8.4 °C 45.2 °F /  7.3 °C 30.10in /  1019.2hPa Calm     93% 0.00in /  0mm 230.00 W/m2
10:49 47.4 °F /  8.6 °C 45.2 °F /  7.3 °C 30.10in /  1019.2hPa Calm     92% 0.00in /  0mm 213.00 W/m2
10:54 47.5 °F /  8.6 °C 45.3 °F /  7.4 °C 30.10in /  1019.2hPa Calm     92% 0.00in /  0mm 236.00 W/m2
10:59 47.6 °F /  8.7 °C 45.4 °F /  7.4 °C 30.10in /  1019.2hPa Calm     92% 0.00in /  0mm 260.00 W/m2
11:04 48.0 °F /  8.9 °C 45.8 °F /  7.7 °C 30.10in /  1019.2hPa Calm     92% 0.00in /  0mm 288.00 W/m2
11:09 48.4 °F /  9.1 °C 46.2 °F /  7.9 °C 30.10in /  1019.2hPa Calm     92% 0.00in /  0mm 272.00 W/m2
11:14 48.7 °F /  9.3 °C 46.5 °F /  8.1 °C 30.10in /  1019.2hPa Calm     92% 0.00in /  0mm 260.00 W/m2
11:19 48.8 °F /  9.3 °C 46.3 °F /  7.9 °C 30.10in /  1019.2hPa Calm     91% 0.00in /  0mm 281.00 W/m2
11:24 49.0 °F /  9.4 °C 46.5 °F /  8.1 °C 30.10in /  1019.2hPa Calm     91% 0.00in /  0mm 255.00 W/m2
11:30 49.3 °F /  9.6 °C 47.1 °F /  8.4 °C 30.10in /  1019.2hPa Calm     92% 0.00in /  0mm 283.00 W/m2
11:35 49.5 °F /  9.7 °C 47.0 °F /  8.3 °C 30.10in /  1019.2hPa Calm     91% 0.00in /  0mm 281.00 W/m2
11:39 49.6 °F /  9.8 °C 47.1 °F /  8.4 °C 30.11in /  1019.5hPa Calm     91% 0.00in /  0mm 251.00 W/m2
11:44 49.6 °F /  9.8 °C 47.1 °F /  8.4 °C 30.11in /  1019.5hPa Calm     91% 0.00in /  0mm 211.00 W/m2
11:49 49.7 °F /  9.8 °C 47.2 °F /  8.4 °C 30.11in /  1019.5hPa Calm     91% 0.00in /  0mm 207.00 W/m2
11:54 49.8 °F /  9.9 °C 47.3 °F /  8.5 °C 30.11in /  1019.5hPa Calm     91% 0.00in /  0mm 225.00 W/m2
11:59 49.9 °F /  9.9 °C 47.1 °F /  8.4 °C 30.10in /  1019.2hPa Calm     90% 0.00in /  0mm 216.00 W/m2
12:04 50.1 °F /  10.1 °C 47.3 °F /  8.5 °C 30.11in /  1019.5hPa Calm     90% 0.00in /  0mm 221.00 W/m2
12:09 50.2 °F /  10.1 °C 47.4 °F /  8.6 °C 30.11in /  1019.5hPa Calm     90% 0.00in /  0mm 213.00 W/m2
12:14 50.3 °F /  10.2 °C 47.5 °F /  8.6 °C 30.11in /  1019.5hPa Calm     90% 0.00in /  0mm 199.00 W/m2
12:19 50.5 °F /  10.3 °C 47.7 °F /  8.7 °C 30.10in /  1019.2hPa Calm     90% 0.00in /  0mm 190.00 W/m2
12:24 50.8 °F /  10.4 °C 48.0 °F /  8.9 °C 30.10in /  1019.2hPa Calm     90% 0.00in /  0mm 211.00 W/m2
12:29 50.9 °F /  10.5 °C 48.1 °F /  8.9 °C 30.10in /  1019.2hPa Calm     90% 0.00in /  0mm 373.00 W/m2
12:34 51.3 °F /  10.7 °C 48.8 °F /  9.3 °C 30.10in /  1019.2hPa SE 3.5mph /  5.6km/h 1.7mph /  2.7km/h 91% 0.00in /  0mm 422.00 W/m2
12:39 51.7 °F /  10.9 °C 48.9 °F /  9.4 °C 30.10in /  1019.2hPa SSE 3.5mph /  5.6km/h 2.2mph /  3.5km/h 90% 0.00in /  0mm 345.00 W/m2
12:44 51.7 °F /  10.9 °C 48.6 °F /  9.2 °C 30.09in /  1018.8hPa Calm     89% 0.00in /  0mm 243.00 W/m2
12:49 51.8 °F /  11 °C 49.0 °F /  9.4 °C 30.09in /  1018.8hPa Calm     90% 0.00in /  0mm 283.00 W/m2
12:54 51.9 °F /  11.1 °C 48.8 °F /  9.3 °C 30.09in /  1018.8hPa Calm     89% 0.00in /  0mm 323.00 W/m2
12:59 52.1 °F /  11.2 °C 49.0 °F /  9.4 °C 30.09in /  1018.8hPa South 1.0mph /  1.6km/h 2.4mph /  3.9km/h 89% 0.00in /  0mm 278.00 W/m2
13:04 52.1 °F /  11.2 °C 49.0 °F /  9.4 °C 30.09in /  1018.8hPa Calm     89% 0.00in /  0mm 278.00 W/m2
13:09 52.4 °F /  11.3 °C 49.3 °F /  9.6 °C 30.09in /  1018.8hPa Calm     89% 0.00in /  0mm 251.00 W/m2
13:14 52.6 °F /  11.4 °C 49.4 °F /  9.7 °C 30.09in /  1018.8hPa SE 2.0mph /  3.2km/h 1.0mph /  1.6km/h 89% 0.00in /  0mm 260.00 W/m2
13:19 52.6 °F /  11.4 °C 49.4 °F /  9.7 °C 30.09in /  1018.8hPa South 4.6mph /  7.4km/h 0.6mph /  1km/h 89% 0.00in /  0mm 241.00 W/m2
13:24 52.5 °F /  11.4 °C 49.0 °F /  9.4 °C 30.09in /  1018.8hPa Calm     88% 0.00in /  0mm 253.00 W/m2
13:29 52.6 °F /  11.4 °C 49.1 °F /  9.5 °C 30.09in /  1018.8hPa Calm     88% 0.00in /  0mm 241.00 W/m2
13:34 52.7 °F /  11.5 °C 49.2 °F /  9.6 °C 30.09in /  1018.8hPa SSW 2.3mph /  3.7km/h 1.5mph /  2.4km/h 88% 0.00in /  0mm 237.00 W/m2
13:39 52.6 °F /  11.4 °C 48.8 °F /  9.3 °C 30.09in /  1018.8hPa Calm     87% 0.00in /  0mm 246.00 W/m2
13:44 52.7 °F /  11.5 °C 49.2 °F /  9.6 °C 30.09in /  1018.8hPa Calm     88% 0.00in /  0mm 251.00 W/m2
13:49 53.0 °F /  11.7 °C 49.5 °F /  9.7 °C 30.09in /  1018.8hPa Calm     88% 0.00in /  0mm 260.00 W/m2
13:54 53.1 °F /  11.7 °C 49.3 °F /  9.6 °C 30.09in /  1018.8hPa West 3.5mph /  5.6km/h 2.0mph /  3.2km/h 87% 0.00in /  0mm 283.00 W/m2
13:59 53.2 °F /  11.8 °C 49.4 °F /  9.7 °C 30.09in /  1018.8hPa SW 2.3mph /  3.7km/h 1.5mph /  2.4km/h 87% 0.00in /  0mm 294.00 W/m2
14:04 53.2 °F /  11.8 °C 49.4 °F /  9.7 °C 30.09in /  1018.8hPa SSW 2.3mph /  3.7km/h 0.9mph /  1.4km/h 87% 0.00in /  0mm 304.00 W/m2
14:09 53.3 °F /  11.8 °C 49.5 °F /  9.7 °C 30.08in /  1018.5hPa SW 3.5mph /  5.6km/h 2.3mph /  3.7km/h 87% 0.00in /  0mm 302.00 W/m2
14:14 53.4 °F /  11.9 °C 49.6 °F /  9.8 °C 30.08in /  1018.5hPa WNW 4.6mph /  7.4km/h 2.7mph /  4.3km/h 87% 0.00in /  0mm 290.00 W/m2
14:19 53.5 °F /  11.9 °C 49.7 °F /  9.8 °C 30.08in /  1018.5hPa West 3.5mph /  5.6km/h 1.2mph /  1.9km/h 87% 0.00in /  0mm 269.00 W/m2
14:24 53.6 °F /  12 °C 49.8 °F /  9.9 °C 30.08in /  1018.5hPa West 4.6mph /  7.4km/h 2.4mph /  3.9km/h 87% 0.00in /  0mm 274.00 W/m2
14:29 53.6 °F /  12 °C 49.8 °F /  9.9 °C 30.08in /  1018.5hPa WNW 4.6mph /  7.4km/h 3.1mph /  5km/h 87% 0.00in /  0mm 299.00 W/m2
14:34 53.7 °F /  12.1 °C 50.2 °F /  10.1 °C 30.08in /  1018.5hPa West 3.5mph /  5.6km/h 2.4mph /  3.9km/h 88% 0.00in /  0mm 285.00 W/m2
14:39 53.8 °F /  12.1 °C 50.3 °F /  10.2 °C 30.08in /  1018.5hPa NW 3.5mph /  5.6km/h 1.5mph /  2.4km/h 88% 0.00in /  0mm 290.00 W/m2
14:45 54.0 °F /  12.2 °C 50.5 °F /  10.3 °C 30.08in /  1018.5hPa WSW 4.6mph /  7.4km/h 2.1mph /  3.4km/h 88% 0.00in /  0mm 250.00 W/m2
14:49 54.0 °F /  12.2 °C 50.2 °F /  10.1 °C 30.08in /  1018.5hPa WSW 4.6mph /  7.4km/h 2.2mph /  3.5km/h 87% 0.00in /  0mm 229.00 W/m2
14:54 53.9 °F /  12.2 °C 50.1 °F /  10.1 °C 30.08in /  1018.5hPa West 5.8mph /  9.3km/h 2.9mph /  4.7km/h 87% 0.00in /  0mm 225.00 W/m2
14:59 53.9 °F /  12.2 °C 50.4 °F /  10.2 °C 30.08in /  1018.5hPa WSW 3.5mph /  5.6km/h 2.5mph /  4km/h 88% 0.00in /  0mm 234.00 W/m2
15:04 53.9 °F /  12.2 °C 50.4 °F /  10.2 °C 30.08in /  1018.5hPa West 3.5mph /  5.6km/h 1.9mph /  3.1km/h 88% 0.00in /  0mm 221.00 W/m2
15:09 53.9 °F /  12.2 °C 50.4 °F /  10.2 °C 30.08in /  1018.5hPa WSW 4.6mph /  7.4km/h 3.0mph /  4.8km/h 88% 0.00in /  0mm 223.00 W/m2
15:14 54.0 °F /  12.2 °C 50.5 °F /  10.3 °C 30.08in /  1018.5hPa WSW 3.5mph /  5.6km/h 2.3mph /  3.7km/h 88% 0.00in /  0mm 223.00 W/m2
15:19 54.1 °F /  12.3 °C 50.6 °F /  10.3 °C 30.07in /  1018.2hPa WSW 3.5mph /  5.6km/h 1.4mph /  2.3km/h 88% 0.00in /  0mm 216.00 W/m2
15:24 54.2 °F /  12.3 °C 50.7 °F /  10.4 °C 30.07in /  1018.2hPa WNW 3.5mph /  5.6km/h 1.1mph /  1.8km/h 88% 0.00in /  0mm 214.00 W/m2
15:29 54.4 °F /  12.4 °C 50.9 °F /  10.5 °C 30.07in /  1018.2hPa WNW 3.5mph /  5.6km/h 3.2mph /  5.1km/h 88% 0.00in /  0mm 207.00 W/m2
15:34 54.3 °F /  12.4 °C 50.5 °F /  10.3 °C 30.07in /  1018.2hPa NW 5.8mph /  9.3km/h 3.7mph /  6km/h 87% 0.00in /  0mm 197.00 W/m2
15:39 54.2 °F /  12.3 °C 50.7 °F /  10.4 °C 30.07in /  1018.2hPa NW 3.5mph /  5.6km/h 3.0mph /  4.8km/h 88% 0.00in /  0mm 190.00 W/m2
15:44 54.2 °F /  12.3 °C 50.7 °F /  10.4 °C 30.07in /  1018.2hPa WNW 4.6mph /  7.4km/h 2.3mph /  3.7km/h 88% 0.00in /  0mm 181.00 W/m2
15:49 54.1 °F /  12.3 °C 50.6 °F /  10.3 °C 30.07in /  1018.2hPa NW 3.5mph /  5.6km/h 1.7mph /  2.7km/h 88% 0.00in /  0mm 176.00 W/m2
15:54 54.2 °F /  12.3 °C 50.7 °F /  10.4 °C 30.07in /  1018.2hPa NW 2.3mph /  3.7km/h 1.4mph /  2.3km/h 88% 0.00in /  0mm 174.00 W/m2
15:59 54.2 °F /  12.3 °C 50.7 °F /  10.4 °C 30.07in /  1018.2hPa NW 4.6mph /  7.4km/h 2.2mph /  3.5km/h 88% 0.00in /  0mm 158.00 W/m2
16:04 54.1 °F /  12.3 °C 50.6 °F /  10.3 °C 30.07in /  1018.2hPa WNW 3.5mph /  5.6km/h 2.3mph /  3.7km/h 88% 0.00in /  0mm 160.00 W/m2
16:10 54.1 °F /  12.3 °C 50.6 °F /  10.3 °C 30.07in /  1018.2hPa NW 3.5mph /  5.6km/h 1.4mph /  2.3km/h 88% 0.00in /  0mm 172.00 W/m2
16:14 54.2 °F /  12.3 °C 50.7 °F /  10.4 °C 30.07in /  1018.2hPa NNW 4.6mph /  7.4km/h 2.6mph /  4.2km/h 88% 0.00in /  0mm 174.00 W/m2
16:20 54.1 °F /  12.3 °C 50.6 °F /  10.3 °C 30.07in /  1018.2hPa NW 3.5mph /  5.6km/h 3.2mph /  5.1km/h 88% 0.00in /  0mm 165.00 W/m2
16:24 54.1 °F /  12.3 °C 50.6 °F /  10.3 °C 30.07in /  1018.2hPa NNW 4.0mph /  6.4km/h 2.4mph /  3.9km/h 88% 0.00in /  0mm 153.00 W/m2
16:29 54.1 °F /  12.3 °C 50.6 °F /  10.3 °C 30.07in /  1018.2hPa WNW 4.6mph /  7.4km/h 2.9mph /  4.7km/h 88% 0.00in /  0mm 160.00 W/m2
16:35 54.0 °F /  12.2 °C 50.5 °F /  10.3 °C 30.07in /  1018.2hPa NNW 5.0mph /  8km/h 4.2mph /  6.8km/h 88% 0.00in /  0mm 174.00 W/m2
16:39 53.9 °F /  12.2 °C 50.7 °F /  10.4 °C 30.07in /  1018.2hPa NW 4.6mph /  7.4km/h 3.3mph /  5.3km/h 89% 0.00in /  0mm 202.00 W/m2
16:44 53.9 °F /  12.2 °C 50.7 °F /  10.4 °C 30.07in /  1018.2hPa NNW 6.9mph /  11.1km/h 5.9mph /  9.5km/h 89% 0.00in /  0mm 244.00 W/m2
16:49 54.4 °F /  12.4 °C 51.5 °F /  10.8 °C 30.07in /  1018.2hPa NNW 8.1mph /  13km/h 5.4mph /  8.7km/h 90% 0.00in /  0mm 348.00 W/m2
16:54 54.8 °F /  12.7 °C 51.6 °F /  10.9 °C 30.07in /  1018.2hPa NNW 8.1mph /  13km/h 5.8mph /  9.3km/h 89% 0.00in /  0mm 364.00 W/m2
16:59 54.8 °F /  12.7 °C 51.3 °F /  10.7 °C 30.06in /  1017.8hPa North 8.1mph /  13km/h 5.2mph /  8.4km/h 88% 0.00in /  0mm 225.00 W/m2
17:04 54.8 °F /  12.7 °C 51.6 °F /  10.9 °C 30.07in /  1018.2hPa NNE 6.9mph /  11.1km/h 6.0mph /  9.7km/h 89% 0.00in /  0mm 526.00 W/m2
17:09 55.1 °F /  12.8 °C 51.9 °F /  11.1 °C 30.07in /  1018.2hPa NNW 5.8mph /  9.3km/h 4.1mph /  6.6km/h 89% 0.00in /  0mm 265.00 W/m2
17:14 55.2 °F /  12.9 °C 52.0 °F /  11.1 °C 30.07in /  1018.2hPa North 5.8mph /  9.3km/h 4.1mph /  6.6km/h 89% 0.00in /  0mm 316.00 W/m2
17:19 55.4 °F /  13 °C 51.9 °F /  11.1 °C 30.07in /  1018.2hPa North 6.9mph /  11.1km/h 4.5mph /  7.2km/h 88% 0.00in /  0mm 214.00 W/m2
17:24 55.3 °F /  12.9 °C 51.5 °F /  10.8 °C 30.07in /  1018.2hPa North 5.8mph /  9.3km/h 2.9mph /  4.7km/h 87% 0.00in /  0mm 329.00 W/m2
17:29 55.4 °F /  13 °C 51.6 °F /  10.9 °C 30.07in /  1018.2hPa NNW 4.6mph /  7.4km/h 3.6mph /  5.8km/h 87% 0.00in /  0mm 336.00 W/m2
17:34 55.4 °F /  13 °C 51.6 °F /  10.9 °C 30.07in /  1018.2hPa North 4.6mph /  7.4km/h 2.4mph /  3.9km/h 87% 0.00in /  0mm 156.00 W/m2
17:39 55.4 °F /  13 °C 51.6 °F /  10.9 °C 30.07in /  1018.2hPa NE 4.6mph /  7.4km/h 3.7mph /  6km/h 87% 0.00in /  0mm 144.00 W/m2
17:44 55.3 °F /  12.9 °C 51.5 °F /  10.8 °C 30.07in /  1018.2hPa North 3.5mph /  5.6km/h 2.3mph /  3.7km/h 87% 0.00in /  0mm 139.00 W/m2
17:50 55.1 °F /  12.8 °C 51.0 °F /  10.6 °C 30.07in /  1018.2hPa North 3.5mph /  5.6km/h 1.5mph /  2.4km/h 86% 0.00in /  0mm 113.00 W/m2
17:54 55.0 °F /  12.8 °C 50.9 °F /  10.5 °C 30.07in /  1018.2hPa North 2.3mph /  3.7km/h 1.3mph /  2.1km/h 86% 0.00in /  0mm 93.00 W/m2
17:59 55.0 °F /  12.8 °C 51.2 °F /  10.7 °C 30.07in /  1018.2hPa North 3.5mph /  5.6km/h 1.5mph /  2.4km/h 87% 0.00in /  0mm 84.00 W/m2
18:04 55.0 °F /  12.8 °C 51.2 °F /  10.7 °C 30.07in /  1018.2hPa North 3.5mph /  5.6km/h 1.7mph /  2.7km/h 87% 0.00in /  0mm 90.00 W/m2
18:09 55.0 °F /  12.8 °C 51.2 °F /  10.7 °C 30.08in /  1018.5hPa NNE 3.5mph /  5.6km/h 2.8mph /  4.5km/h 87% 0.00in /  0mm 90.00 W/m2
18:14 54.8 °F /  12.7 °C 51.0 °F /  10.6 °C 30.08in /  1018.5hPa NNE 3.5mph /  5.6km/h 1.8mph /  2.9km/h 87% 0.00in /  0mm 83.00 W/m2
18:19 54.7 °F /  12.6 °C 50.9 °F /  10.5 °C 30.08in /  1018.5hPa NNE 3.5mph /  5.6km/h 1.9mph /  3.1km/h 87% 0.00in /  0mm 76.00 W/m2
18:24 54.6 °F /  12.6 °C 51.1 °F /  10.6 °C 30.08in /  1018.5hPa NNE 3.5mph /  5.6km/h 1.4mph /  2.3km/h 88% 0.00in /  0mm 51.00 W/m2
18:29 54.4 °F /  12.4 °C 50.9 °F /  10.5 °C 30.08in /  1018.5hPa NNE 3.5mph /  5.6km/h 1.7mph /  2.7km/h 88% 0.00in /  0mm 32.00 W/m2
18:34 54.3 °F /  12.4 °C 50.8 °F /  10.4 °C 30.08in /  1018.5hPa NNE 3.5mph /  5.6km/h 2.2mph /  3.5km/h 88% 0.00in /  0mm 30.00 W/m2
18:39 54.1 °F /  12.3 °C 50.9 °F /  10.5 °C 30.08in /  1018.5hPa NNE 3.5mph /  5.6km/h 1.1mph /  1.8km/h 89% 0.00in /  0mm 23.00 W/m2
18:44 53.9 °F /  12.2 °C 50.7 °F /  10.4 °C 30.08in /  1018.5hPa NNE 2.3mph /  3.7km/h 1.2mph /  1.9km/h 89% 0.00in /  0mm 23.00 W/m2
18:49 53.8 °F /  12.1 °C 50.6 °F /  10.3 °C 30.08in /  1018.5hPa NNE 2.3mph /  3.7km/h 1.0mph /  1.6km/h 89% 0.00in /  0mm 26.00 W/m2
18:55 53.7 °F /  12.1 °C 50.5 °F /  10.3 °C 30.08in /  1018.5hPa Calm     89% 0.00in /  0mm 19.00 W/m2
18:59 53.7 °F /  12.1 °C 50.5 °F /  10.3 °C 30.08in /  1018.5hPa Calm     89% 0.00in /  0mm 12.00 W/m2
19:04 53.6 °F /  12 °C 50.7 °F /  10.4 °C 30.08in /  1018.5hPa Calm     90% 0.00in /  0mm 7.00 W/m2
19:09 53.5 °F /  11.9 °C 50.6 °F /  10.3 °C 30.08in /  1018.5hPa Calm     90% 0.00in /  0mm 0.00 W/m2
19:14 53.4 °F /  11.9 °C 50.5 °F /  10.3 °C 30.09in /  1018.8hPa Calm     90% 0.00in /  0mm 0.00 W/m2
19:19 53.4 °F /  11.9 °C 50.5 °F /  10.3 °C 30.09in /  1018.8hPa NNE 1.2mph /  1.9km/h   90% 0.00in /  0mm 0.00 W/m2
19:24 53.3 °F /  11.8 °C 50.4 °F /  10.2 °C 30.09in /  1018.8hPa Calm     90% 0.00in /  0mm 0.00 W/m2
19:29 53.3 °F /  11.8 °C 50.4 °F /  10.2 °C 30.09in /  1018.8hPa Calm     90% 0.00in /  0mm 0.00 W/m2
19:34 53.2 °F /  11.8 °C 50.3 °F /  10.2 °C 30.08in /  1018.5hPa Calm     90% 0.00in /  0mm 0.00 W/m2
19:39 53.1 °F /  11.7 °C 50.2 °F /  10.1 °C 30.08in /  1018.5hPa Calm     90% 0.00in /  0mm 0.00 W/m2
19:45 53.0 °F /  11.7 °C 50.1 °F /  10.1 °C 30.08in /  1018.5hPa Calm     90% 0.00in /  0mm 0.00 W/m2
19:49 52.9 °F /  11.6 °C 50.0 °F /  10 °C 30.08in /  1018.5hPa Calm     90% 0.00in /  0mm 0.00 W/m2
19:54 52.8 °F /  11.6 °C 50.2 °F /  10.1 °C 30.09in /  1018.8hPa NNE 2.3mph /  3.7km/h 0.3mph /  0.5km/h 91% 0.00in /  0mm 0.00 W/m2
19:59 52.8 °F /  11.6 °C 50.2 °F /  10.1 °C 30.09in /  1018.8hPa Calm     91% 0.00in /  0mm 0.00 W/m2
20:04 52.8 °F /  11.6 °C 50.2 °F /  10.1 °C 30.09in /  1018.8hPa NNE 1.2mph /  1.9km/h 0.1mph /  0.2km/h 91% 0.00in /  0mm 0.00 W/m2
20:09 52.8 °F /  11.6 °C 50.2 °F /  10.1 °C 30.10in /  1019.2hPa NW 3.5mph /  5.6km/h 1.3mph /  2.1km/h 91% 0.00in /  0mm 0.00 W/m2
20:15 52.8 °F /  11.6 °C 50.2 °F /  10.1 °C 30.10in /  1019.2hPa NW 1.2mph /  1.9km/h 0.2mph /  0.3km/h 91% 0.00in /  0mm 0.00 W/m2
20:19 52.9 °F /  11.6 °C 50.3 °F /  10.2 °C 30.10in /  1019.2hPa NW 2.3mph /  3.7km/h 1.1mph /  1.8km/h 91% 0.00in /  0mm 0.00 W/m2
20:24 52.9 °F /  11.6 °C 50.0 °F /  10 °C 30.11in /  1019.5hPa NW 3.5mph /  5.6km/h 1.5mph /  2.4km/h 90% 0.00in /  0mm 0.00 W/m2
20:29 52.9 °F /  11.6 °C 50.3 °F /  10.2 °C 30.11in /  1019.5hPa NW 2.3mph /  3.7km/h 0.3mph /  0.5km/h 91% 0.00in /  0mm 0.00 W/m2
20:34 52.8 °F /  11.6 °C 50.2 °F /  10.1 °C 30.11in /  1019.5hPa Calm     91% 0.00in /  0mm 0.00 W/m2
20:39 52.8 °F /  11.6 °C 50.2 °F /  10.1 °C 30.11in /  1019.5hPa NW 3.5mph /  5.6km/h 1.2mph /  1.9km/h 91% 0.00in /  0mm 0.00 W/m2
20:44 52.7 °F /  11.5 °C 50.1 °F /  10.1 °C 30.11in /  1019.5hPa WNW 3.5mph /  5.6km/h 1.7mph /  2.7km/h 91% 0.00in /  0mm 0.00 W/m2
20:49 52.6 °F /  11.4 °C 50.0 °F /  10 °C 30.11in /  1019.5hPa NW 2.3mph /  3.7km/h 0.7mph /  1.1km/h 91% 0.00in /  0mm 0.00 W/m2
20:55 52.6 °F /  11.4 °C 50.0 °F /  10 °C 30.12in /  1019.9hPa NW 1.2mph /  1.9km/h   91% 0.00in /  0mm 0.00 W/m2
20:59 52.6 °F /  11.4 °C 50.0 °F /  10 °C 30.12in /  1019.9hPa Calm   0.4mph /  0.6km/h 91% 0.00in /  0mm 0.00 W/m2
21:04 52.5 °F /  11.4 °C 49.9 °F /  9.9 °C 30.12in /  1019.9hPa Calm   0.6mph /  1km/h 91% 0.00in /  0mm 0.00 W/m2
21:09 52.4 °F /  11.3 °C 49.8 °F /  9.9 °C 30.12in /  1019.9hPa NNW 2.3mph /  3.7km/h 1.5mph /  2.4km/h 91% 0.00in /  0mm 0.00 W/m2
21:15 52.3 °F /  11.3 °C 49.8 °F /  9.9 °C 30.12in /  1019.9hPa NNW 2.3mph /  3.7km/h 1.1mph /  1.8km/h 91% 0.00in /  0mm 0.00 W/m2
21:19 52.2 °F /  11.2 °C 49.7 °F /  9.8 °C 30.13in /  1020.2hPa NNW 3.5mph /  5.6km/h 2.0mph /  3.2km/h 91% 0.00in /  0mm 0.00 W/m2
21:24 52.1 °F /  11.2 °C 49.6 °F /  9.8 °C 30.13in /  1020.2hPa NNW 3.5mph /  5.6km/h 1.6mph /  2.6km/h 91% 0.00in /  0mm 0.00 W/m2
21:29 52.0 °F /  11.1 °C 49.5 °F /  9.7 °C 30.13in /  1020.2hPa NNW 2.3mph /  3.7km/h 0.6mph /  1km/h 91% 0.00in /  0mm 0.00 W/m2
21:34 51.9 °F /  11.1 °C 49.4 °F /  9.7 °C 30.13in /  1020.2hPa NNW 2.3mph /  3.7km/h 0.2mph /  0.3km/h 91% 0.00in /  0mm 0.00 W/m2
21:39 51.9 °F /  11.1 °C 49.4 °F /  9.7 °C 30.13in /  1020.2hPa NNW 1.2mph /  1.9km/h 0.5mph /  0.8km/h 91% 0.00in /  0mm 0.00 W/m2
21:45 51.8 °F /  11 °C 49.3 °F /  9.6 °C 30.13in /  1020.2hPa Calm     91% 0.00in /  0mm 0.00 W/m2
21:49 51.8 °F /  11 °C 49.3 °F /  9.6 °C 30.13in /  1020.2hPa NNW 2.3mph /  3.7km/h 1.6mph /  2.6km/h 91% 0.00in /  0mm 0.00 W/m2
21:54 51.7 °F /  10.9 °C 49.2 °F /  9.6 °C 30.13in /  1020.2hPa Calm     91% 0.00in /  0mm 0.00 W/m2
21:59 51.5 °F /  10.8 °C 49.0 °F /  9.4 °C 30.13in /  1020.2hPa Calm     91% 0.00in /  0mm 0.00 W/m2
22:04 51.4 °F /  10.8 °C 48.9 °F /  9.4 °C 30.13in /  1020.2hPa Calm     91% 0.00in /  0mm 0.00 W/m2
22:09 51.2 °F /  10.7 °C 48.7 °F /  9.3 °C 30.13in /  1020.2hPa Calm     91% 0.00in /  0mm 0.00 W/m2
22:14 51.1 °F /  10.6 °C 48.9 °F /  9.4 °C 30.13in /  1020.2hPa Calm     92% 0.00in /  0mm 0.00 W/m2
22:19 51.0 °F /  10.6 °C 48.8 °F /  9.3 °C 30.13in /  1020.2hPa Calm     92% 0.00in /  0mm 0.00 W/m2
22:24 50.8 °F /  10.4 °C 48.6 °F /  9.2 °C 30.13in /  1020.2hPa Calm     92% 0.00in /  0mm 0.00 W/m2
22:29 50.7 °F /  10.4 °C 48.5 °F /  9.2 °C 30.13in /  1020.2hPa Calm     92% 0.00in /  0mm 0.00 W/m2
22:35 50.6 °F /  10.3 °C 48.4 °F /  9.1 °C 30.13in /  1020.2hPa Calm     92% 0.00in /  0mm 0.00 W/m2
22:39 50.5 °F /  10.3 °C 48.6 °F /  9.2 °C 30.13in /  1020.2hPa Calm     93% 0.00in /  0mm 0.00 W/m2
22:44 50.4 °F /  10.2 °C 48.5 °F /  9.2 °C 30.13in /  1020.2hPa Calm     93% 0.00in /  0mm 0.00 W/m2
22:49 50.2 °F /  10.1 °C 48.0 °F /  8.9 °C 30.13in /  1020.2hPa Calm     92% 0.00in /  0mm 0.00 W/m2
22:54 50.0 °F /  10 °C 48.1 °F /  8.9 °C 30.13in /  1020.2hPa Calm     93% 0.00in /  0mm 0.00 W/m2
22:59 49.9 °F /  9.9 °C 48.0 °F /  8.9 °C 30.13in /  1020.2hPa Calm     93% 0.00in /  0mm 0.00 W/m2
23:04 49.9 °F /  9.9 °C 48.0 °F /  8.9 °C 30.13in /  1020.2hPa Calm     93% 0.00in /  0mm 0.00 W/m2
23:09 49.9 °F /  9.9 °C 48.0 °F /  8.9 °C 30.13in /  1020.2hPa Calm     93% 0.00in /  0mm 0.00 W/m2
23:14 49.8 °F /  9.9 °C 47.9 °F /  8.8 °C 30.13in /  1020.2hPa Calm     93% 0.00in /  0mm 0.00 W/m2
23:20 49.5 °F /  9.7 °C 47.6 °F /  8.7 °C 30.13in /  1020.2hPa Calm     93% 0.00in /  0mm 0.00 W/m2
23:24 49.4 °F /  9.7 °C 47.5 °F /  8.6 °C 30.13in /  1020.2hPa Calm     93% 0.00in /  0mm 0.00 W/m2
23:30 49.2 °F /  9.6 °C 47.3 °F /  8.5 °C 30.13in /  1020.2hPa Calm     93% 0.00in /  0mm 0.00 W/m2
23:34 49.1 °F /  9.5 °C 47.2 °F /  8.4 °C 30.13in /  1020.2hPa Calm     93% 0.00in /  0mm 0.00 W/m2
23:39 48.9 °F /  9.4 °C 47.0 °F /  8.3 °C 30.13in /  1020.2hPa Calm     93% 0.00in /  0mm 0.00 W/m2
23:45 48.8 °F /  9.3 °C 46.9 °F /  8.3 °C 30.13in /  1020.2hPa Calm     93% 0.00in /  0mm 0.00 W/m2
23:49 48.7 °F /  9.3 °C 46.8 °F /  8.2 °C 30.13in /  1020.2hPa Calm     93% 0.00in /  0mm 0.00 W/m2
23:54 48.5 °F /  9.2 °C 46.6 °F /  8.1 °C 30.13in /  1020.2hPa Calm     93% 0.00in /  0mm 0.00 W/m2
23:59 48.4 °F /  9.1 °C 46.8 °F /  8.2 °C 30.13in /  1020.2hPa Calm     94% 0.00in /  0mm 0.00 W/m2
Bourbonnais, Illinois, USA
Compliments of Weather Underground - 4 mb